DAL173 KBOS-KFLL
Flight info
| Callsign | DAL173 |
|---|---|
| Flight time | 3h 4m |
| Altitude | 40000 |
| Route | SSOXS7 SSOXS Q167 RIFLE HEADI Q97 KALDA Q161 CHIEZ Y291 SAGGY/N0490F430 Y291 MAJIK CUUDA3 |
| Aircraft | A359/H-VGDW/C |
Departure
| Time | 2026-05-03 20:59 |
|---|---|
| Airport | Boston Logan International Airport (KBOS) |
Arrival
| Time | 2026-05-04 00:03 |
|---|---|
| Airport | Fort Lauderdale Hollywood International Airport (KFLL) |
| Time | Latitude | Longitude | Altitude | Speed | Heading |
|---|---|---|---|---|---|
| 2026-05-03 20:15 | 42.37182 | -71.02559 | 32 ft | 0 kts | 220° |
| 2026-05-03 20:41 | 42.37187 | -71.02554 | 31 ft | 3 kts | 220° |
| 2026-05-03 20:42 | 42.37201 | -71.02537 | 31 ft | 3 kts | 220° |
| 2026-05-03 20:42 | 42.37215 | -71.02521 | 30 ft | 3 kts | 220° |
| 2026-05-03 20:42 | 42.37228 | -71.02506 | 30 ft | 0 kts | 220° |
| 2026-05-03 20:42 | 42.37239 | -71.02495 | 29 ft | 3 kts | 206° |
| 2026-05-03 20:43 | 42.37258 | -71.02486 | 29 ft | 3 kts | 185° |
| 2026-05-03 20:43 | 42.37273 | -71.02486 | 31 ft | 0 kts | 168° |
| 2026-05-03 20:48 | 42.37217 | -71.02432 | 32 ft | 18 kts | 136° |
| 2026-05-03 20:48 | 42.37208 | -71.02421 | 32 ft | 0 kts | 135° |
| 2026-05-03 20:49 | 42.37168 | -71.02364 | 32 ft | 24 kts | 128° |
| 2026-05-03 20:49 | 42.37151 | -71.02265 | 32 ft | 0 kts | 70° |
| 2026-05-03 20:49 | 42.37152 | -71.02263 | 32 ft | 3 kts | 69° |
| 2026-05-03 20:50 | 42.37197 | -71.02189 | 32 ft | 15 kts | 44° |
| 2026-05-03 20:50 | 42.37229 | -71.02116 | 32 ft | 8 kts | 78° |
| 2026-05-03 20:50 | 42.37231 | -71.02030 | 32 ft | 10 kts | 94° |
| 2026-05-03 20:50 | 42.37207 | -71.01925 | 32 ft | 12 kts | 118° |
| 2026-05-03 20:51 | 42.37156 | -71.01820 | 32 ft | 8 kts | 123° |
| 2026-05-03 20:51 | 42.37139 | -71.01762 | 32 ft | 12 kts | 101° |
| 2026-05-03 20:51 | 42.37117 | -71.01591 | 32 ft | 26 kts | 126° |
| 2026-05-03 20:51 | 42.36979 | -71.01401 | 32 ft | 30 kts | 135° |
| 2026-05-03 20:52 | 42.36828 | -71.01198 | 32 ft | 32 kts | 135° |
| 2026-05-03 20:52 | 42.36643 | -71.01185 | 32 ft | 21 kts | 199° |
| 2026-05-03 20:52 | 42.36568 | -71.01222 | 32 ft | 15 kts | 200° |
| 2026-05-03 20:52 | 42.36442 | -71.01282 | 32 ft | 16 kts | 199° |
| 2026-05-03 20:53 | 42.36346 | -71.01304 | 32 ft | 6 kts | 155° |
| 2026-05-03 20:53 | 42.36345 | -71.01303 | 32 ft | 0 kts | 151° |
| 2026-05-03 20:53 | 42.36309 | -71.01253 | 32 ft | 16 kts | 127° |
| 2026-05-03 20:53 | 42.36226 | -71.01043 | 32 ft | 34 kts | 114° |
| 2026-05-03 20:54 | 42.36185 | -71.00919 | 32 ft | 0 kts | 114° |
| 2026-05-03 20:54 | 42.36183 | -71.00914 | 32 ft | 5 kts | 114° |
| 2026-05-03 20:55 | 42.36135 | -71.00765 | 32 ft | 27 kts | 111° |
| 2026-05-03 20:55 | 42.36070 | -71.00515 | 32 ft | 29 kts | 107° |
| 2026-05-03 20:55 | 42.36004 | -71.00260 | 32 ft | 22 kts | 110° |
| 2026-05-03 20:55 | 42.35960 | -71.00088 | 32 ft | 8 kts | 105° |
| 2026-05-03 20:56 | 42.35960 | -71.00085 | 32 ft | 0 kts | 105° |
| 2026-05-03 20:56 | 42.35953 | -71.00013 | 32 ft | 21 kts | 91° |
| 2026-05-03 20:56 | 42.35995 | -70.99734 | 32 ft | 38 kts | 76° |
| 2026-05-03 20:57 | 42.36058 | -70.99380 | 32 ft | 39 kts | 77° |
| 2026-05-03 20:57 | 42.36121 | -70.99020 | 32 ft | 35 kts | 77° |
| 2026-05-03 20:57 | 42.36106 | -70.98849 | 32 ft | 11 kts | 149° |
| 2026-05-03 20:57 | 42.36031 | -70.98826 | 32 ft | 0 kts | 189° |
| 2026-05-03 20:58 | 42.36009 | -70.98871 | 32 ft | 0 kts | 255° |
| 2026-05-03 20:58 | 42.35983 | -70.99009 | 32 ft | 56 kts | 256° |
| 2026-05-03 20:58 | 42.35812 | -70.99977 | 33 ft | 153 kts | 255° |
| 2026-05-03 20:58 | 42.35501 | -71.01664 | 368 ft | 210 kts | 263° |
| 2026-05-03 20:59 | 42.35109 | -71.03782 | 941 ft | 249 kts | 251° |
| 2026-05-03 20:59 | 42.34010 | -71.05657 | 1956 ft | 262 kts | 223° |
| 2026-05-03 20:59 | 42.32556 | -71.07099 | 3222 ft | 257 kts | 222° |
| 2026-05-03 20:59 | 42.31156 | -71.08582 | 4121 ft | 256 kts | 225° |
| 2026-05-03 21:00 | 42.29798 | -71.10147 | 4932 ft | 258 kts | 227° |
| 2026-05-03 21:00 | 42.29334 | -71.10678 | 5190 ft | 260 kts | 225° |
| 2026-05-03 21:00 | 42.26441 | -71.11994 | 6498 ft | 284 kts | 177° |
| 2026-05-03 21:00 | 42.24555 | -71.11089 | 7274 ft | 293 kts | 152° |
| 2026-05-03 21:01 | 42.22790 | -71.09691 | 8046 ft | 297 kts | 150° |
| 2026-05-03 21:01 | 42.20999 | -71.08279 | 8854 ft | 300 kts | 152° |
| 2026-05-03 21:01 | 42.19170 | -71.06895 | 9672 ft | 303 kts | 153° |
| 2026-05-03 21:01 | 42.17308 | -71.05521 | 10423 ft | 306 kts | 153° |
| 2026-05-03 21:02 | 42.15433 | -71.04123 | 11194 ft | 311 kts | 151° |
| 2026-05-03 21:02 | 42.13610 | -71.02510 | 11981 ft | 315 kts | 147° |
| 2026-05-03 21:02 | 42.11805 | -71.00808 | 12785 ft | 320 kts | 147° |
| 2026-05-03 21:02 | 42.09991 | -70.99099 | 13588 ft | 324 kts | 147° |
| 2026-05-03 21:03 | 42.08129 | -70.97352 | 14334 ft | 329 kts | 147° |
| 2026-05-03 21:03 | 42.06234 | -70.95581 | 15098 ft | 333 kts | 147° |
| 2026-05-03 21:03 | 42.04323 | -70.93796 | 15869 ft | 337 kts | 147° |
| 2026-05-03 21:03 | 42.02386 | -70.91990 | 16669 ft | 340 kts | 147° |
| 2026-05-03 21:04 | 42.00429 | -70.90165 | 17483 ft | 343 kts | 147° |
| 2026-05-03 21:04 | 41.98445 | -70.88319 | 18068 ft | 353 kts | 147° |
| 2026-05-03 21:04 | 41.96380 | -70.86402 | 18460 ft | 368 kts | 147° |
| 2026-05-03 21:04 | 41.94232 | -70.84408 | 18832 ft | 382 kts | 147° |
| 2026-05-03 21:05 | 41.92002 | -70.82339 | 19214 ft | 397 kts | 147° |
| 2026-05-03 21:05 | 41.89664 | -70.80262 | 19594 ft | 410 kts | 152° |
| 2026-05-03 21:05 | 41.87056 | -70.78633 | 19977 ft | 416 kts | 165° |
| 2026-05-03 21:05 | 41.84243 | -70.77811 | 20362 ft | 414 kts | 178° |
| 2026-05-03 21:06 | 41.81382 | -70.77840 | 20758 ft | 408 kts | 192° |
| 2026-05-03 21:06 | 41.78639 | -70.78678 | 21147 ft | 402 kts | 204° |
| 2026-05-03 21:06 | 41.76090 | -70.80177 | 21557 ft | 399 kts | 212° |
| 2026-05-03 21:06 | 41.73641 | -70.81923 | 21955 ft | 399 kts | 214° |
| 2026-05-03 21:07 | 41.71227 | -70.83767 | 22376 ft | 400 kts | 215° |
| 2026-05-03 21:07 | 41.68818 | -70.85646 | 22793 ft | 401 kts | 215° |
| 2026-05-03 21:07 | 41.66398 | -70.87526 | 23214 ft | 403 kts | 215° |
| 2026-05-03 21:07 | 41.63956 | -70.89401 | 23603 ft | 405 kts | 214° |
| 2026-05-03 21:08 | 41.61499 | -70.91263 | 23950 ft | 407 kts | 214° |
| 2026-05-03 21:08 | 41.59021 | -70.93128 | 24299 ft | 409 kts | 214° |
| 2026-05-03 21:08 | 41.56633 | -70.95168 | 24653 ft | 407 kts | 221° |
| 2026-05-03 21:08 | 41.54484 | -70.97588 | 25023 ft | 404 kts | 229° |
| 2026-05-03 21:09 | 41.52641 | -71.00402 | 25398 ft | 402 kts | 237° |
| 2026-05-03 21:09 | 41.51004 | -71.03423 | 25772 ft | 403 kts | 239° |
| 2026-05-03 21:09 | 41.49430 | -71.06528 | 26156 ft | 404 kts | 240° |
| 2026-05-03 21:09 | 41.47883 | -71.09669 | 26537 ft | 407 kts | 240° |
| 2026-05-03 21:10 | 41.46331 | -71.12837 | 26925 ft | 409 kts | 240° |
| 2026-05-03 21:10 | 41.44767 | -71.16012 | 27314 ft | 411 kts | 240° |
| 2026-05-03 21:10 | 41.43185 | -71.19199 | 27725 ft | 414 kts | 240° |
| 2026-05-03 21:10 | 41.41584 | -71.22403 | 28146 ft | 416 kts | 239° |
| 2026-05-03 21:11 | 41.39967 | -71.25621 | 28561 ft | 419 kts | 239° |
| 2026-05-03 21:11 | 41.38361 | -71.28806 | 28986 ft | 421 kts | 239° |
| 2026-05-03 21:11 | 41.36706 | -71.32083 | 29413 ft | 422 kts | 239° |
| 2026-05-03 21:11 | 41.35071 | -71.35321 | 29843 ft | 421 kts | 239° |
| 2026-05-03 21:12 | 41.33441 | -71.38551 | 30223 ft | 420 kts | 239° |
| 2026-05-03 21:12 | 41.31835 | -71.41724 | 30582 ft | 419 kts | 239° |
| 2026-05-03 21:12 | 41.30206 | -71.44940 | 30940 ft | 419 kts | 239° |
| 2026-05-03 21:12 | 41.28578 | -71.48151 | 31306 ft | 418 kts | 239° |
| 2026-05-03 21:13 | 41.26953 | -71.51355 | 31685 ft | 418 kts | 239° |
| 2026-05-03 21:13 | 41.25327 | -71.54556 | 31913 ft | 418 kts | 239° |
| 2026-05-03 21:13 | 41.23703 | -71.57753 | 32115 ft | 417 kts | 239° |
| 2026-05-03 21:13 | 41.22077 | -71.60950 | 32318 ft | 417 kts | 239° |
| 2026-05-03 21:14 | 41.20455 | -71.64137 | 32522 ft | 417 kts | 239° |
| 2026-05-03 21:14 | 41.18829 | -71.67327 | 32723 ft | 417 kts | 239° |
| 2026-05-03 21:14 | 41.17204 | -71.70513 | 32934 ft | 417 kts | 239° |
| 2026-05-03 21:14 | 41.15581 | -71.73690 | 33141 ft | 416 kts | 239° |
| 2026-05-03 21:15 | 41.13956 | -71.76872 | 33369 ft | 416 kts | 239° |
| 2026-05-03 21:15 | 41.12339 | -71.80053 | 33574 ft | 415 kts | 239° |
| 2026-05-03 21:15 | 41.11270 | -71.82155 | 33730 ft | 415 kts | 239° |
| 2026-05-03 21:15 | 41.09113 | -71.86398 | 33988 ft | 414 kts | 239° |
| 2026-05-03 21:16 | 41.08047 | -71.88491 | 34113 ft | 414 kts | 239° |
| 2026-05-03 21:16 | 41.06436 | -71.91652 | 34282 ft | 414 kts | 239° |
| 2026-05-03 21:16 | 41.04826 | -71.94812 | 34461 ft | 413 kts | 239° |
| 2026-05-03 21:16 | 41.03342 | -71.98057 | 34640 ft | 410 kts | 245° |
| 2026-05-03 21:17 | 41.02067 | -72.01426 | 34829 ft | 409 kts | 246° |
| 2026-05-03 21:17 | 41.00843 | -72.04819 | 35014 ft | 408 kts | 247° |
| 2026-05-03 21:17 | 40.99638 | -72.08234 | 35197 ft | 412 kts | 247° |
| 2026-05-03 21:17 | 40.98428 | -72.11693 | 35387 ft | 417 kts | 247° |
| 2026-05-03 21:18 | 40.97201 | -72.15200 | 35583 ft | 422 kts | 247° |
| 2026-05-03 21:18 | 40.95961 | -72.18735 | 35774 ft | 426 kts | 247° |
| 2026-05-03 21:18 | 40.94703 | -72.22302 | 35966 ft | 430 kts | 247° |
| 2026-05-03 21:18 | 40.93427 | -72.25902 | 36160 ft | 434 kts | 247° |
| 2026-05-03 21:19 | 40.91983 | -72.29424 | 36358 ft | 440 kts | 240° |
| 2026-05-03 21:19 | 40.90192 | -72.32738 | 36538 ft | 446 kts | 233° |
| 2026-05-03 21:19 | 40.88091 | -72.35788 | 36750 ft | 451 kts | 230° |
| 2026-05-03 21:19 | 40.85882 | -72.38750 | 36949 ft | 454 kts | 229° |
| 2026-05-03 21:20 | 40.83628 | -72.41685 | 37166 ft | 456 kts | 228° |
| 2026-05-03 21:20 | 40.81347 | -72.44616 | 37368 ft | 459 kts | 228° |
| 2026-05-03 21:20 | 40.78947 | -72.47418 | 37573 ft | 462 kts | 224° |
| 2026-05-03 21:20 | 40.76476 | -72.50135 | 37780 ft | 463 kts | 224° |
| 2026-05-03 21:21 | 40.73987 | -72.52836 | 37982 ft | 464 kts | 224° |
| 2026-05-03 21:21 | 40.71492 | -72.55527 | 38207 ft | 464 kts | 223° |
| 2026-05-03 21:21 | 40.69097 | -72.58369 | 38406 ft | 460 kts | 229° |
| 2026-05-03 21:21 | 40.66958 | -72.61485 | 38607 ft | 458 kts | 232° |
| 2026-05-03 21:22 | 40.64898 | -72.64681 | 38780 ft | 457 kts | 233° |
| 2026-05-03 21:22 | 40.62872 | -72.67905 | 38952 ft | 457 kts | 234° |
| 2026-05-03 21:22 | 40.60857 | -72.71142 | 39129 ft | 456 kts | 234° |
| 2026-05-03 21:22 | 40.58851 | -72.74371 | 39296 ft | 456 kts | 234° |
| 2026-05-03 21:23 | 40.56867 | -72.77556 | 39467 ft | 456 kts | 234° |
| 2026-05-03 21:23 | 40.54856 | -72.80773 | 39645 ft | 455 kts | 233° |
| 2026-05-03 21:23 | 40.52841 | -72.83986 | 39825 ft | 455 kts | 233° |
| 2026-05-03 21:23 | 40.50823 | -72.87195 | 39911 ft | 457 kts | 233° |
| 2026-05-03 21:24 | 40.46748 | -72.93661 | 39930 ft | 462 kts | 233° |
| 2026-05-03 21:24 | 40.42643 | -73.00158 | 39929 ft | 463 kts | 233° |
| 2026-05-03 21:25 | 40.38527 | -73.06656 | 39931 ft | 462 kts | 233° |
| 2026-05-03 21:25 | 40.34412 | -73.13140 | 39937 ft | 462 kts | 233° |
| 2026-05-03 21:26 | 40.30306 | -73.19599 | 39943 ft | 461 kts | 233° |
| 2026-05-03 21:26 | 40.26196 | -73.26049 | 39943 ft | 461 kts | 233° |
| 2026-05-03 21:27 | 40.22088 | -73.32485 | 39959 ft | 460 kts | 233° |
| 2026-05-03 21:27 | 40.17975 | -73.38914 | 39960 ft | 460 kts | 233° |
| 2026-05-03 21:28 | 40.13872 | -73.45315 | 39959 ft | 460 kts | 233° |
| 2026-05-03 21:28 | 40.09760 | -73.51716 | 39962 ft | 459 kts | 233° |
| 2026-05-03 21:29 | 40.05653 | -73.58096 | 39962 ft | 459 kts | 233° |
| 2026-05-03 21:29 | 40.01569 | -73.64428 | 39965 ft | 459 kts | 233° |
| 2026-05-03 21:30 | 39.97207 | -73.70515 | 39972 ft | 464 kts | 225° |
| 2026-05-03 21:30 | 39.91675 | -73.75011 | 39975 ft | 475 kts | 210° |
| 2026-05-03 21:31 | 39.85569 | -73.78378 | 39977 ft | 478 kts | 208° |
| 2026-05-03 21:31 | 39.79391 | -73.81586 | 39981 ft | 478 kts | 208° |
| 2026-05-03 21:32 | 39.73224 | -73.84810 | 39983 ft | 477 kts | 208° |
| 2026-05-03 21:32 | 39.67076 | -73.88060 | 39986 ft | 477 kts | 208° |
| 2026-05-03 21:33 | 39.60939 | -73.91312 | 39987 ft | 476 kts | 208° |
| 2026-05-03 21:33 | 39.54812 | -73.94553 | 39991 ft | 475 kts | 208° |
| 2026-05-03 21:34 | 39.48688 | -73.97785 | 39993 ft | 475 kts | 208° |
| 2026-05-03 21:34 | 39.42642 | -74.01163 | 39999 ft | 469 kts | 214° |
| 2026-05-03 21:35 | 39.37359 | -74.05902 | 39996 ft | 459 kts | 224° |
| 2026-05-03 21:35 | 39.32466 | -74.11190 | 39999 ft | 458 kts | 225° |
| 2026-05-03 21:36 | 39.27628 | -74.16531 | 40000 ft | 458 kts | 225° |
| 2026-05-03 21:36 | 39.22777 | -74.21848 | 40002 ft | 457 kts | 225° |
| 2026-05-03 21:37 | 39.17918 | -74.27132 | 40005 ft | 457 kts | 225° |
| 2026-05-03 21:37 | 39.13055 | -74.32401 | 40007 ft | 456 kts | 225° |
| 2026-05-03 21:38 | 39.08233 | -74.37617 | 40013 ft | 456 kts | 225° |
| 2026-05-03 21:38 | 39.03350 | -74.42891 | 40021 ft | 455 kts | 225° |
| 2026-05-03 21:39 | 38.98530 | -74.48087 | 40026 ft | 455 kts | 225° |
| 2026-05-03 21:39 | 38.93678 | -74.53309 | 40027 ft | 454 kts | 225° |
| 2026-05-03 21:40 | 38.88965 | -74.58681 | 40025 ft | 452 kts | 228° |
| 2026-05-03 21:40 | 38.84366 | -74.64174 | 40027 ft | 451 kts | 228° |
| 2026-05-03 21:41 | 38.79752 | -74.69637 | 40034 ft | 451 kts | 227° |
| 2026-05-03 21:41 | 38.75122 | -74.75054 | 40034 ft | 451 kts | 227° |
| 2026-05-03 21:42 | 38.70356 | -74.80285 | 40039 ft | 452 kts | 224° |
| 2026-05-03 21:42 | 38.65419 | -74.85288 | 40039 ft | 452 kts | 224° |
| 2026-05-03 21:43 | 38.60504 | -74.90294 | 40041 ft | 451 kts | 224° |
| 2026-05-03 21:43 | 38.55630 | -74.95328 | 40038 ft | 451 kts | 225° |
| 2026-05-03 21:44 | 38.50783 | -75.00396 | 40039 ft | 449 kts | 226° |
| 2026-05-03 21:44 | 38.46090 | -75.05646 | 40036 ft | 448 kts | 227° |
| 2026-05-03 21:45 | 38.41196 | -75.10615 | 40034 ft | 452 kts | 222° |
| 2026-05-03 21:45 | 38.36129 | -75.15277 | 40032 ft | 452 kts | 222° |
| 2026-05-03 21:46 | 38.31050 | -75.19977 | 40032 ft | 451 kts | 223° |
| 2026-05-03 21:46 | 38.26015 | -75.24714 | 40032 ft | 450 kts | 223° |
| 2026-05-03 21:47 | 38.20994 | -75.29464 | 40039 ft | 449 kts | 223° |
| 2026-05-03 21:47 | 38.15981 | -75.34201 | 40047 ft | 449 kts | 223° |
| 2026-05-03 21:48 | 38.10964 | -75.38929 | 40049 ft | 449 kts | 223° |
| 2026-05-03 21:48 | 38.05947 | -75.43648 | 40056 ft | 449 kts | 223° |
| 2026-05-03 21:49 | 38.00873 | -75.48282 | 40052 ft | 450 kts | 221° |
| 2026-05-03 21:49 | 37.95680 | -75.52737 | 40050 ft | 450 kts | 221° |
| 2026-05-03 21:50 | 37.90498 | -75.57178 | 40053 ft | 450 kts | 221° |
| 2026-05-03 21:50 | 37.85235 | -75.61492 | 40054 ft | 455 kts | 216° |
| 2026-05-03 21:51 | 37.79250 | -75.64448 | 40056 ft | 468 kts | 205° |
| 2026-05-03 21:51 | 37.72959 | -75.66700 | 40063 ft | 470 kts | 204° |
| 2026-05-03 21:52 | 37.66643 | -75.68856 | 40070 ft | 470 kts | 204° |
| 2026-05-03 21:52 | 37.60343 | -75.71032 | 40071 ft | 469 kts | 204° |
| 2026-05-03 21:53 | 37.54054 | -75.73229 | 40072 ft | 469 kts | 205° |
| 2026-05-03 21:53 | 37.47764 | -75.75431 | 40074 ft | 468 kts | 205° |
| 2026-05-03 21:54 | 37.41532 | -75.77608 | 40075 ft | 468 kts | 205° |
| 2026-05-03 21:54 | 37.35219 | -75.79808 | 40076 ft | 467 kts | 205° |
| 2026-05-03 21:55 | 37.28996 | -75.81973 | 40078 ft | 467 kts | 205° |
| 2026-05-03 21:55 | 37.22743 | -75.84145 | 40083 ft | 466 kts | 205° |
| 2026-05-03 21:56 | 37.16506 | -75.86307 | 40087 ft | 465 kts | 205° |
| 2026-05-03 21:56 | 37.10285 | -75.88545 | 40084 ft | 460 kts | 209° |
| 2026-05-03 21:57 | 37.04597 | -75.91884 | 40093 ft | 448 kts | 217° |
| 2026-05-03 21:57 | 36.99150 | -75.95642 | 40068 ft | 446 kts | 218° |
| 2026-05-03 21:58 | 36.93732 | -75.99445 | 40055 ft | 446 kts | 218° |
| 2026-05-03 21:58 | 36.88321 | -76.03218 | 40057 ft | 445 kts | 217° |
| 2026-05-03 21:59 | 36.82924 | -76.06952 | 40060 ft | 443 kts | 217° |
| 2026-05-03 21:59 | 36.77522 | -76.10684 | 40062 ft | 444 kts | 217° |
| 2026-05-03 22:00 | 36.72112 | -76.14414 | 40070 ft | 444 kts | 217° |
| 2026-05-03 22:00 | 36.66702 | -76.18136 | 40074 ft | 444 kts | 217° |
| 2026-05-03 22:01 | 36.61284 | -76.21862 | 40079 ft | 446 kts | 217° |
| 2026-05-03 22:01 | 36.55883 | -76.25568 | 40088 ft | 446 kts | 217° |
| 2026-05-03 22:02 | 36.50444 | -76.29293 | 40082 ft | 446 kts | 217° |
| 2026-05-03 22:02 | 36.45022 | -76.32997 | 40081 ft | 443 kts | 217° |
| 2026-05-03 22:03 | 36.39629 | -76.36675 | 40077 ft | 441 kts | 217° |
| 2026-05-03 22:03 | 36.34272 | -76.40328 | 40081 ft | 439 kts | 217° |
| 2026-05-03 22:04 | 36.28927 | -76.43968 | 40080 ft | 438 kts | 217° |
| 2026-05-03 22:04 | 36.24499 | -76.46978 | 40093 ft | 437 kts | 217° |
| 2026-05-03 22:05 | 36.19178 | -76.50590 | 40097 ft | 436 kts | 217° |
| 2026-05-03 22:05 | 36.13864 | -76.54191 | 40098 ft | 435 kts | 217° |
| 2026-05-03 22:06 | 36.08558 | -76.57781 | 40099 ft | 434 kts | 217° |
| 2026-05-03 22:06 | 36.03264 | -76.61357 | 40094 ft | 433 kts | 217° |
| 2026-05-03 22:07 | 35.97978 | -76.64922 | 40097 ft | 432 kts | 217° |
| 2026-05-03 22:07 | 35.92704 | -76.68473 | 40096 ft | 431 kts | 217° |
| 2026-05-03 22:08 | 35.87419 | -76.71972 | 40099 ft | 432 kts | 215° |
| 2026-05-03 22:08 | 35.82022 | -76.75238 | 40093 ft | 432 kts | 214° |
| 2026-05-03 22:09 | 35.76609 | -76.78464 | 40095 ft | 431 kts | 214° |
| 2026-05-03 22:10 | 35.68539 | -76.83346 | 40098 ft | 430 kts | 215° |
| 2026-05-03 22:10 | 35.63186 | -76.86603 | 40096 ft | 429 kts | 215° |
| 2026-05-03 22:11 | 35.57834 | -76.89857 | 40097 ft | 429 kts | 215° |
| 2026-05-03 22:11 | 35.52507 | -76.93120 | 40095 ft | 428 kts | 215° |
| 2026-05-03 22:12 | 35.47189 | -76.96384 | 40098 ft | 427 kts | 215° |
| 2026-05-03 22:12 | 35.41920 | -76.99612 | 40097 ft | 426 kts | 215° |
| 2026-05-03 22:13 | 35.36618 | -77.02853 | 40099 ft | 425 kts | 215° |
| 2026-05-03 22:13 | 35.31333 | -77.06079 | 40102 ft | 424 kts | 215° |
| 2026-05-03 22:14 | 35.26061 | -77.09292 | 40097 ft | 423 kts | 215° |
| 2026-05-03 22:14 | 35.20795 | -77.12497 | 40088 ft | 422 kts | 215° |
| 2026-05-03 22:15 | 35.15539 | -77.15691 | 40094 ft | 422 kts | 215° |
| 2026-05-03 22:15 | 35.10289 | -77.18877 | 40088 ft | 421 kts | 215° |
| 2026-05-03 22:16 | 35.05049 | -77.22052 | 40092 ft | 420 kts | 215° |
| 2026-05-03 22:16 | 34.99809 | -77.25223 | 40092 ft | 420 kts | 215° |
| 2026-05-03 22:17 | 34.94584 | -77.28380 | 40099 ft | 419 kts | 215° |
| 2026-05-03 22:17 | 34.89368 | -77.31526 | 40092 ft | 418 kts | 215° |
| 2026-05-03 22:18 | 34.84153 | -77.34668 | 40091 ft | 417 kts | 215° |
| 2026-05-03 22:18 | 34.78958 | -77.37793 | 40084 ft | 416 kts | 215° |
| 2026-05-03 22:19 | 34.73768 | -77.40911 | 40091 ft | 416 kts | 215° |
| 2026-05-03 22:19 | 34.68583 | -77.44022 | 40085 ft | 415 kts | 215° |
| 2026-05-03 22:20 | 34.63439 | -77.47105 | 40090 ft | 415 kts | 215° |
| 2026-05-03 22:20 | 34.58265 | -77.50200 | 40090 ft | 415 kts | 215° |
| 2026-05-03 22:21 | 34.53041 | -77.53199 | 40103 ft | 420 kts | 211° |
| 2026-05-03 22:21 | 34.47317 | -77.55093 | 40095 ft | 432 kts | 202° |
| 2026-05-03 22:22 | 34.41395 | -77.56430 | 40103 ft | 434 kts | 201° |
| 2026-05-03 22:22 | 34.35445 | -77.57694 | 40100 ft | 433 kts | 201° |
| 2026-05-03 22:23 | 34.29518 | -77.58974 | 40102 ft | 432 kts | 201° |
| 2026-05-03 22:23 | 34.23609 | -77.60270 | 40104 ft | 431 kts | 201° |
| 2026-05-03 22:24 | 34.17716 | -77.61568 | 40106 ft | 430 kts | 201° |
| 2026-05-03 22:24 | 34.11837 | -77.62861 | 40108 ft | 429 kts | 201° |
| 2026-05-03 22:25 | 34.05962 | -77.64151 | 40117 ft | 429 kts | 201° |
| 2026-05-03 22:25 | 34.00094 | -77.65436 | 40119 ft | 428 kts | 201° |
| 2026-05-03 22:26 | 33.94229 | -77.66718 | 40123 ft | 428 kts | 201° |
| 2026-05-03 22:26 | 33.88379 | -77.67996 | 40120 ft | 427 kts | 201° |
| 2026-05-03 22:27 | 33.82534 | -77.69271 | 40124 ft | 427 kts | 201° |
| 2026-05-03 22:27 | 33.76689 | -77.70544 | 40125 ft | 426 kts | 201° |
| 2026-05-03 22:28 | 33.70855 | -77.71813 | 40133 ft | 426 kts | 201° |
| 2026-05-03 22:28 | 33.65141 | -77.73413 | 40129 ft | 419 kts | 205° |
| 2026-05-03 22:29 | 33.59555 | -77.75225 | 40133 ft | 418 kts | 206° |
| 2026-05-03 22:29 | 33.53947 | -77.77073 | 40132 ft | 418 kts | 206° |
| 2026-05-03 22:30 | 33.48342 | -77.78912 | 40140 ft | 417 kts | 206° |
| 2026-05-03 22:30 | 33.42738 | -77.80741 | 40134 ft | 417 kts | 206° |
| 2026-05-03 22:31 | 33.37135 | -77.82565 | 40137 ft | 417 kts | 205° |
| 2026-05-03 22:31 | 33.31543 | -77.84382 | 40136 ft | 417 kts | 205° |
| 2026-05-03 22:32 | 33.25948 | -77.86199 | 40145 ft | 416 kts | 205° |
| 2026-05-03 22:32 | 33.20361 | -77.88010 | 40140 ft | 416 kts | 205° |
| 2026-05-03 22:33 | 33.14779 | -77.89818 | 40141 ft | 416 kts | 205° |
| 2026-05-03 22:33 | 33.09198 | -77.91623 | 40139 ft | 415 kts | 205° |
| 2026-05-03 22:34 | 33.03641 | -77.93417 | 40143 ft | 412 kts | 205° |
| 2026-05-03 22:34 | 32.98142 | -77.95278 | 40141 ft | 410 kts | 206° |
| 2026-05-03 22:35 | 32.92654 | -77.97181 | 40144 ft | 410 kts | 206° |
| 2026-05-03 22:35 | 32.87170 | -77.99070 | 40137 ft | 410 kts | 206° |
| 2026-05-03 22:36 | 32.81686 | -78.00945 | 40143 ft | 410 kts | 206° |
| 2026-05-03 22:36 | 32.76195 | -78.02816 | 40151 ft | 410 kts | 206° |
| 2026-05-03 22:37 | 32.70708 | -78.04683 | 40145 ft | 411 kts | 206° |
| 2026-05-03 22:37 | 32.65213 | -78.06558 | 40146 ft | 411 kts | 206° |
| 2026-05-03 22:38 | 32.59722 | -78.08420 | 40145 ft | 411 kts | 205° |
| 2026-05-03 22:38 | 32.54218 | -78.10283 | 40144 ft | 411 kts | 205° |
| 2026-05-03 22:39 | 32.48714 | -78.12145 | 40149 ft | 411 kts | 205° |
| 2026-05-03 22:39 | 32.43207 | -78.14008 | 40146 ft | 412 kts | 205° |
| 2026-05-03 22:40 | 32.37700 | -78.15869 | 40147 ft | 412 kts | 205° |
| 2026-05-03 22:40 | 32.32181 | -78.17731 | 40145 ft | 412 kts | 205° |
| 2026-05-03 22:41 | 32.26663 | -78.19591 | 40143 ft | 413 kts | 205° |
| 2026-05-03 22:41 | 32.21138 | -78.21451 | 40142 ft | 413 kts | 205° |
| 2026-05-03 22:42 | 32.15615 | -78.23307 | 40143 ft | 414 kts | 205° |
| 2026-05-03 22:42 | 32.10101 | -78.25157 | 40143 ft | 414 kts | 205° |
| 2026-05-03 22:43 | 32.04550 | -78.27017 | 40146 ft | 415 kts | 205° |
| 2026-05-03 22:43 | 31.98993 | -78.28878 | 40142 ft | 416 kts | 205° |
| 2026-05-03 22:44 | 31.93383 | -78.30756 | 40143 ft | 417 kts | 205° |
| 2026-05-03 22:44 | 31.87800 | -78.32623 | 40143 ft | 417 kts | 205° |
| 2026-05-03 22:45 | 31.82243 | -78.34475 | 40144 ft | 418 kts | 205° |
| 2026-05-03 22:45 | 31.76644 | -78.36339 | 40141 ft | 418 kts | 205° |
| 2026-05-03 22:46 | 31.71003 | -78.38215 | 40141 ft | 419 kts | 205° |
| 2026-05-03 22:46 | 31.65423 | -78.40070 | 40135 ft | 420 kts | 205° |
| 2026-05-03 22:47 | 31.59796 | -78.41938 | 40137 ft | 420 kts | 205° |
| 2026-05-03 22:47 | 31.54157 | -78.43807 | 40135 ft | 421 kts | 205° |
| 2026-05-03 22:48 | 31.48506 | -78.45673 | 40137 ft | 423 kts | 205° |
| 2026-05-03 22:48 | 31.42824 | -78.47512 | 40134 ft | 424 kts | 205° |
| 2026-05-03 22:49 | 31.37130 | -78.49349 | 40132 ft | 425 kts | 205° |
| 2026-05-03 22:49 | 31.31421 | -78.51195 | 40144 ft | 426 kts | 205° |
| 2026-05-03 22:50 | 31.25699 | -78.53046 | 40136 ft | 427 kts | 205° |
| 2026-05-03 22:50 | 31.19975 | -78.54895 | 40133 ft | 427 kts | 205° |
| 2026-05-03 22:51 | 31.14241 | -78.56746 | 40133 ft | 428 kts | 205° |
| 2026-05-03 22:51 | 31.09466 | -78.58285 | 40130 ft | 428 kts | 205° |
| 2026-05-03 22:52 | 31.03721 | -78.60134 | 40130 ft | 429 kts | 205° |
| 2026-05-03 22:52 | 30.97963 | -78.61986 | 40126 ft | 429 kts | 205° |
| 2026-05-03 22:53 | 30.92198 | -78.63837 | 40133 ft | 430 kts | 205° |
| 2026-05-03 22:53 | 30.86432 | -78.65686 | 40126 ft | 430 kts | 205° |
| 2026-05-03 22:54 | 30.80655 | -78.67537 | 40128 ft | 430 kts | 205° |
| 2026-05-03 22:54 | 30.74879 | -78.69385 | 40126 ft | 431 kts | 205° |
| 2026-05-03 22:55 | 30.69100 | -78.71232 | 40127 ft | 432 kts | 205° |
| 2026-05-03 22:55 | 30.63305 | -78.73082 | 40122 ft | 432 kts | 205° |
| 2026-05-03 22:56 | 30.57493 | -78.74935 | 40125 ft | 433 kts | 205° |
| 2026-05-03 22:56 | 30.51680 | -78.76785 | 40117 ft | 434 kts | 205° |
| 2026-05-03 22:57 | 30.45851 | -78.78639 | 40122 ft | 434 kts | 205° |
| 2026-05-03 22:57 | 30.40062 | -78.80477 | 40120 ft | 435 kts | 205° |
| 2026-05-03 22:57 | 30.37224 | -78.81587 | 40120 ft | 423 kts | 214° |
| 2026-05-03 22:58 | 30.34819 | -78.83479 | 40123 ft | 407 kts | 229° |
| 2026-05-03 22:58 | 30.33121 | -78.86039 | 40129 ft | 399 kts | 244° |
| 2026-05-03 22:58 | 30.32237 | -78.89021 | 40123 ft | 399 kts | 259° |
| 2026-05-03 22:58 | 30.32220 | -78.92287 | 40139 ft | 406 kts | 274° |
| 2026-05-03 22:59 | 30.32669 | -78.95528 | 40122 ft | 409 kts | 274° |
| 2026-05-03 22:59 | 30.34183 | -79.01943 | 40125 ft | 420 kts | 284° |
| 2026-05-03 23:00 | 30.37213 | -79.07866 | 40125 ft | 441 kts | 300° |
| 2026-05-03 23:00 | 30.39551 | -79.10296 | 40133 ft | 465 kts | 315° |
| 2026-05-03 23:00 | 30.42522 | -79.11987 | 40127 ft | 490 kts | 330° |
| 2026-05-03 23:00 | 30.45940 | -79.12778 | 40129 ft | 516 kts | 345° |
| 2026-05-03 23:01 | 30.49606 | -79.12566 | 40129 ft | 540 kts | 0° |
| 2026-05-03 23:01 | 30.53274 | -79.11316 | 40129 ft | 562 kts | 15° |
| 2026-05-03 23:01 | 30.56730 | -79.09054 | 40121 ft | 579 kts | 30° |
| 2026-05-03 23:01 | 30.59740 | -79.05889 | 40130 ft | 591 kts | 45° |
| 2026-05-03 23:02 | 30.62198 | -79.02038 | 40141 ft | 596 kts | 54° |
| 2026-05-03 23:02 | 30.67081 | -78.94264 | 40142 ft | 595 kts | 48° |
| 2026-05-03 23:03 | 30.72194 | -78.86699 | 40121 ft | 598 kts | 54° |
| 2026-05-03 23:03 | 30.74123 | -78.82426 | 40134 ft | 600 kts | 69° |
| 2026-05-03 23:03 | 30.75231 | -78.77828 | 40130 ft | 596 kts | 83° |
| 2026-05-03 23:03 | 30.75515 | -78.73060 | 40131 ft | 588 kts | 97° |
| 2026-05-03 23:04 | 30.74916 | -78.68414 | 40133 ft | 575 kts | 112° |
| 2026-05-03 23:04 | 30.73507 | -78.64153 | 40130 ft | 559 kts | 125° |
| 2026-05-03 23:04 | 30.71438 | -78.60426 | 40136 ft | 539 kts | 140° |
| 2026-05-03 23:04 | 30.68857 | -78.57366 | 40128 ft | 524 kts | 149° |
| 2026-05-03 23:05 | 30.66059 | -78.54698 | 40127 ft | 515 kts | 155° |
| 2026-05-03 23:05 | 30.63072 | -78.52514 | 40127 ft | 501 kts | 163° |
| 2026-05-03 23:05 | 30.59923 | -78.50925 | 40127 ft | 486 kts | 173° |
| 2026-05-03 23:05 | 30.56704 | -78.49982 | 40130 ft | 471 kts | 182° |
| 2026-05-03 23:06 | 30.53494 | -78.49668 | 40126 ft | 457 kts | 191° |
| 2026-05-03 23:06 | 30.50374 | -78.49937 | 40124 ft | 445 kts | 199° |
| 2026-05-03 23:06 | 30.47396 | -78.50731 | 40127 ft | 434 kts | 206° |
| 2026-05-03 23:07 | 30.42064 | -78.53668 | 40127 ft | 418 kts | 220° |
| 2026-05-03 23:07 | 30.37786 | -78.58049 | 40120 ft | 407 kts | 234° |
| 2026-05-03 23:07 | 30.36381 | -78.60847 | 40134 ft | 401 kts | 250° |
| 2026-05-03 23:08 | 30.35821 | -78.64003 | 40128 ft | 404 kts | 265° |
| 2026-05-03 23:08 | 30.35504 | -78.70458 | 40130 ft | 401 kts | 254° |
| 2026-05-03 23:09 | 30.33426 | -78.76413 | 40124 ft | 401 kts | 242° |
| 2026-05-03 23:09 | 30.30089 | -78.81611 | 40125 ft | 406 kts | 230° |
| 2026-05-03 23:10 | 30.25646 | -78.85728 | 40117 ft | 418 kts | 217° |
| 2026-05-03 23:10 | 30.22955 | -78.87108 | 40115 ft | 431 kts | 205° |
| 2026-05-03 23:10 | 30.20009 | -78.87912 | 40128 ft | 437 kts | 201° |
| 2026-05-03 23:11 | 30.14104 | -78.89442 | 40120 ft | 433 kts | 203° |
| 2026-05-03 23:11 | 30.08293 | -78.91087 | 40120 ft | 425 kts | 204° |
| 2026-05-03 23:11 | 30.05463 | -78.91905 | 40108 ft | 414 kts | 204° |
| 2026-05-03 23:12 | 30.02692 | -78.92714 | 40126 ft | 410 kts | 204° |
| 2026-05-03 23:12 | 29.97151 | -78.94353 | 40120 ft | 411 kts | 204° |
| 2026-05-03 23:13 | 29.91651 | -78.95975 | 40116 ft | 410 kts | 204° |
| 2026-05-03 23:13 | 29.86122 | -78.97604 | 40114 ft | 410 kts | 204° |
| 2026-05-03 23:14 | 29.80576 | -78.99186 | 40111 ft | 414 kts | 201° |
| 2026-05-03 23:14 | 29.74845 | -79.00294 | 40109 ft | 419 kts | 199° |
| 2026-05-03 23:15 | 29.69086 | -79.01350 | 40104 ft | 420 kts | 199° |
| 2026-05-03 23:15 | 29.63301 | -79.02416 | 40104 ft | 421 kts | 199° |
| 2026-05-03 23:16 | 29.57500 | -79.03485 | 40104 ft | 423 kts | 199° |
| 2026-05-03 23:16 | 29.51688 | -79.04555 | 40104 ft | 424 kts | 199° |
| 2026-05-03 23:17 | 29.45857 | -79.05628 | 40099 ft | 424 kts | 199° |
| 2026-05-03 23:17 | 29.40028 | -79.06700 | 40101 ft | 425 kts | 200° |
| 2026-05-03 23:18 | 29.34227 | -79.07765 | 40098 ft | 425 kts | 200° |
| 2026-05-03 23:18 | 29.28390 | -79.08836 | 40099 ft | 425 kts | 200° |
| 2026-05-03 23:19 | 29.22544 | -79.09907 | 40089 ft | 425 kts | 200° |
| 2026-05-03 23:19 | 29.16707 | -79.10975 | 40095 ft | 425 kts | 200° |
| 2026-05-03 23:20 | 29.10858 | -79.12044 | 40091 ft | 425 kts | 200° |
| 2026-05-03 23:20 | 29.05016 | -79.13110 | 40089 ft | 425 kts | 200° |
| 2026-05-03 23:21 | 28.99179 | -79.14175 | 40090 ft | 424 kts | 200° |
| 2026-05-03 23:21 | 28.93351 | -79.15236 | 40085 ft | 424 kts | 200° |
| 2026-05-03 23:22 | 28.84605 | -79.16828 | 40083 ft | 424 kts | 200° |
| 2026-05-03 23:22 | 28.78784 | -79.17885 | 40087 ft | 424 kts | 200° |
| 2026-05-03 23:23 | 28.72953 | -79.18943 | 40085 ft | 424 kts | 199° |
| 2026-05-03 23:23 | 28.67121 | -79.20000 | 40083 ft | 424 kts | 199° |
| 2026-05-03 23:24 | 28.61294 | -79.21055 | 40077 ft | 424 kts | 199° |
| 2026-05-03 23:24 | 28.55505 | -79.22102 | 40080 ft | 424 kts | 199° |
| 2026-05-03 23:25 | 28.49666 | -79.23157 | 40075 ft | 425 kts | 199° |
| 2026-05-03 23:25 | 28.43832 | -79.24209 | 40078 ft | 425 kts | 199° |
| 2026-05-03 23:26 | 28.37991 | -79.25262 | 39997 ft | 425 kts | 199° |
| 2026-05-03 23:26 | 28.35072 | -79.25788 | 39669 ft | 425 kts | 199° |
| 2026-05-03 23:26 | 28.32178 | -79.26395 | 39318 ft | 419 kts | 203° |
| 2026-05-03 23:27 | 28.29377 | -79.27243 | 38974 ft | 416 kts | 205° |
| 2026-05-03 23:27 | 28.26598 | -79.28152 | 38613 ft | 416 kts | 205° |
| 2026-05-03 23:27 | 28.23815 | -79.29063 | 38192 ft | 417 kts | 205° |
| 2026-05-03 23:27 | 28.21028 | -79.29972 | 37797 ft | 418 kts | 205° |
| 2026-05-03 23:28 | 28.18234 | -79.30882 | 37404 ft | 420 kts | 205° |
| 2026-05-03 23:28 | 28.15416 | -79.31797 | 37019 ft | 422 kts | 204° |
| 2026-05-03 23:28 | 28.12585 | -79.32716 | 36635 ft | 424 kts | 204° |
| 2026-05-03 23:28 | 28.09746 | -79.33636 | 36260 ft | 426 kts | 204° |
| 2026-05-03 23:29 | 28.06889 | -79.34561 | 35779 ft | 428 kts | 204° |
| 2026-05-03 23:29 | 28.04037 | -79.35482 | 35034 ft | 424 kts | 204° |
| 2026-05-03 23:29 | 28.01185 | -79.36405 | 34276 ft | 429 kts | 204° |
| 2026-05-03 23:29 | 27.98296 | -79.37343 | 33449 ft | 435 kts | 203° |
| 2026-05-03 23:30 | 27.95369 | -79.38290 | 32597 ft | 440 kts | 203° |
| 2026-05-03 23:30 | 27.92412 | -79.39245 | 31796 ft | 444 kts | 202° |
| 2026-05-03 23:30 | 27.89433 | -79.40206 | 31005 ft | 447 kts | 202° |
| 2026-05-03 23:30 | 27.86427 | -79.41177 | 30229 ft | 451 kts | 202° |
| 2026-05-03 23:31 | 27.83413 | -79.42147 | 29367 ft | 450 kts | 202° |
| 2026-05-03 23:31 | 27.80404 | -79.43110 | 28486 ft | 446 kts | 202° |
| 2026-05-03 23:31 | 27.77440 | -79.44060 | 27647 ft | 440 kts | 202° |
| 2026-05-03 23:31 | 27.74511 | -79.44999 | 26835 ft | 435 kts | 202° |
| 2026-05-03 23:32 | 27.71621 | -79.45926 | 26029 ft | 429 kts | 202° |
| 2026-05-03 23:32 | 27.68768 | -79.46843 | 25257 ft | 424 kts | 202° |
| 2026-05-03 23:32 | 27.65951 | -79.47747 | 24634 ft | 419 kts | 202° |
| 2026-05-03 23:32 | 27.63170 | -79.48639 | 24224 ft | 412 kts | 202° |
| 2026-05-03 23:33 | 27.60459 | -79.49509 | 24070 ft | 408 kts | 202° |
| 2026-05-03 23:33 | 27.57749 | -79.50374 | 24039 ft | 387 kts | 202° |
| 2026-05-03 23:33 | 27.55219 | -79.51177 | 24040 ft | 372 kts | 202° |
| 2026-05-03 23:33 | 27.52785 | -79.51958 | 24041 ft | 367 kts | 203° |
| 2026-05-03 23:34 | 27.50336 | -79.52749 | 24041 ft | 366 kts | 203° |
| 2026-05-03 23:34 | 27.47887 | -79.53537 | 24041 ft | 366 kts | 203° |
| 2026-05-03 23:34 | 27.45439 | -79.54324 | 24042 ft | 366 kts | 202° |
| 2026-05-03 23:34 | 27.42993 | -79.55108 | 24038 ft | 366 kts | 202° |
| 2026-05-03 23:35 | 27.40539 | -79.55894 | 24040 ft | 366 kts | 202° |
| 2026-05-03 23:35 | 27.38082 | -79.56681 | 23941 ft | 367 kts | 202° |
| 2026-05-03 23:35 | 27.35634 | -79.57451 | 23506 ft | 364 kts | 202° |
| 2026-05-03 23:35 | 27.33207 | -79.58211 | 22666 ft | 362 kts | 202° |
| 2026-05-03 23:36 | 27.30789 | -79.58971 | 21828 ft | 360 kts | 202° |
| 2026-05-03 23:36 | 27.28382 | -79.59728 | 21264 ft | 359 kts | 202° |
| 2026-05-03 23:36 | 27.25983 | -79.60483 | 21063 ft | 358 kts | 201° |
| 2026-05-03 23:36 | 27.23587 | -79.61237 | 21035 ft | 357 kts | 201° |
| 2026-05-03 23:37 | 27.21202 | -79.61987 | 21040 ft | 356 kts | 201° |
| 2026-05-03 23:37 | 27.18816 | -79.62737 | 21026 ft | 356 kts | 201° |
| 2026-05-03 23:37 | 27.16433 | -79.63500 | 20911 ft | 356 kts | 202° |
| 2026-05-03 23:37 | 27.14063 | -79.64260 | 20454 ft | 353 kts | 202° |
| 2026-05-03 23:38 | 27.11705 | -79.65015 | 19883 ft | 352 kts | 201° |
| 2026-05-03 23:38 | 27.10143 | -79.65515 | 19520 ft | 351 kts | 201° |
| 2026-05-03 23:38 | 27.07798 | -79.66266 | 18966 ft | 350 kts | 201° |
| 2026-05-03 23:38 | 27.05466 | -79.67011 | 18430 ft | 345 kts | 201° |
| 2026-05-03 23:39 | 27.03172 | -79.67743 | 17813 ft | 341 kts | 201° |
| 2026-05-03 23:39 | 27.00898 | -79.68469 | 17200 ft | 338 kts | 201° |
| 2026-05-03 23:39 | 26.98646 | -79.69188 | 16596 ft | 336 kts | 201° |
| 2026-05-03 23:39 | 26.96405 | -79.69904 | 16002 ft | 334 kts | 201° |
| 2026-05-03 23:40 | 26.94177 | -79.70616 | 15442 ft | 332 kts | 200° |
| 2026-05-03 23:40 | 26.91962 | -79.71324 | 15094 ft | 331 kts | 200° |
| 2026-05-03 23:40 | 26.89747 | -79.72030 | 14999 ft | 330 kts | 200° |
| 2026-05-03 23:40 | 26.87540 | -79.72733 | 14997 ft | 327 kts | 200° |
| 2026-05-03 23:41 | 26.85369 | -79.73424 | 14998 ft | 324 kts | 200° |
| 2026-05-03 23:41 | 26.83206 | -79.74113 | 14998 ft | 323 kts | 200° |
| 2026-05-03 23:41 | 26.81047 | -79.74802 | 14999 ft | 323 kts | 200° |
| 2026-05-03 23:41 | 26.78891 | -79.75487 | 14784 ft | 321 kts | 200° |
| 2026-05-03 23:42 | 26.76741 | -79.76164 | 14259 ft | 319 kts | 200° |
| 2026-05-03 23:42 | 26.74609 | -79.76836 | 13647 ft | 318 kts | 200° |
| 2026-05-03 23:42 | 26.72478 | -79.77508 | 13166 ft | 318 kts | 200° |
| 2026-05-03 23:42 | 26.70352 | -79.78179 | 13011 ft | 318 kts | 200° |
| 2026-05-03 23:43 | 26.68248 | -79.78890 | 12851 ft | 311 kts | 203° |
| 2026-05-03 23:43 | 26.66254 | -79.79717 | 12382 ft | 302 kts | 205° |
| 2026-05-03 23:43 | 26.64307 | -79.80552 | 11874 ft | 299 kts | 205° |
| 2026-05-03 23:43 | 26.62363 | -79.81372 | 11368 ft | 298 kts | 204° |
| 2026-05-03 23:44 | 26.60426 | -79.82176 | 11060 ft | 297 kts | 204° |
| 2026-05-03 23:44 | 26.58486 | -79.82975 | 11007 ft | 297 kts | 204° |
| 2026-05-03 23:44 | 26.56548 | -79.83769 | 11005 ft | 296 kts | 204° |
| 2026-05-03 23:44 | 26.54614 | -79.84567 | 11006 ft | 296 kts | 205° |
| 2026-05-03 23:45 | 26.52718 | -79.85444 | 10969 ft | 295 kts | 207° |
| 2026-05-03 23:45 | 26.50841 | -79.86350 | 10658 ft | 293 kts | 207° |
| 2026-05-03 23:45 | 26.48966 | -79.87249 | 10264 ft | 293 kts | 207° |
| 2026-05-03 23:45 | 26.47108 | -79.88130 | 9872 ft | 286 kts | 207° |
| 2026-05-03 23:46 | 26.45294 | -79.88986 | 9418 ft | 281 kts | 207° |
| 2026-05-03 23:46 | 26.43506 | -79.89829 | 8993 ft | 279 kts | 207° |
| 2026-05-03 23:46 | 26.41722 | -79.90669 | 8571 ft | 277 kts | 206° |
| 2026-05-03 23:46 | 26.39954 | -79.91501 | 8171 ft | 275 kts | 206° |
| 2026-05-03 23:47 | 26.38211 | -79.92369 | 8009 ft | 274 kts | 210° |
| 2026-05-03 23:47 | 26.36542 | -79.93396 | 7990 ft | 273 kts | 213° |
| 2026-05-03 23:47 | 26.34905 | -79.94455 | 7990 ft | 272 kts | 213° |
| 2026-05-03 23:47 | 26.33268 | -79.95512 | 7990 ft | 272 kts | 213° |
| 2026-05-03 23:48 | 26.31627 | -79.96568 | 7990 ft | 272 kts | 213° |
| 2026-05-03 23:48 | 26.30005 | -79.97611 | 7982 ft | 272 kts | 213° |
| 2026-05-03 23:48 | 26.28351 | -79.98673 | 7881 ft | 269 kts | 213° |
| 2026-05-03 23:48 | 26.26791 | -79.99671 | 7685 ft | 255 kts | 213° |
| 2026-05-03 23:49 | 26.25256 | -80.00654 | 7492 ft | 249 kts | 213° |
| 2026-05-03 23:49 | 26.23760 | -80.01617 | 7298 ft | 248 kts | 213° |
| 2026-05-03 23:49 | 26.22287 | -80.02566 | 7113 ft | 247 kts | 213° |
| 2026-05-03 23:49 | 26.20794 | -80.03527 | 6925 ft | 247 kts | 213° |
| 2026-05-03 23:50 | 26.19318 | -80.04498 | 6731 ft | 246 kts | 216° |
| 2026-05-03 23:50 | 26.18068 | -80.05764 | 6549 ft | 242 kts | 236° |
| 2026-05-03 23:50 | 26.17337 | -80.07428 | 6360 ft | 240 kts | 251° |
| 2026-05-03 23:50 | 26.16818 | -80.09195 | 6148 ft | 240 kts | 253° |
| 2026-05-03 23:51 | 26.16309 | -80.10956 | 5945 ft | 240 kts | 252° |
| 2026-05-03 23:51 | 26.15788 | -80.12722 | 5762 ft | 240 kts | 252° |
| 2026-05-03 23:51 | 26.15270 | -80.14483 | 5552 ft | 239 kts | 253° |
| 2026-05-03 23:51 | 26.14995 | -80.16305 | 5367 ft | 239 kts | 267° |
| 2026-05-03 23:52 | 26.14993 | -80.18154 | 5170 ft | 239 kts | 270° |
| 2026-05-03 23:52 | 26.15020 | -80.20009 | 4974 ft | 239 kts | 270° |
| 2026-05-03 23:52 | 26.15037 | -80.21826 | 4758 ft | 231 kts | 270° |
| 2026-05-03 23:52 | 26.15051 | -80.23604 | 4519 ft | 229 kts | 269° |
| 2026-05-03 23:53 | 26.15061 | -80.25376 | 4305 ft | 229 kts | 270° |
| 2026-05-03 23:53 | 26.15069 | -80.27150 | 4079 ft | 227 kts | 270° |
| 2026-05-03 23:53 | 26.15076 | -80.28877 | 3852 ft | 221 kts | 270° |
| 2026-05-03 23:53 | 26.15083 | -80.30578 | 3630 ft | 219 kts | 270° |
| 2026-05-03 23:54 | 26.15090 | -80.32271 | 3415 ft | 219 kts | 270° |
| 2026-05-03 23:54 | 26.15097 | -80.33961 | 3193 ft | 214 kts | 270° |
| 2026-05-03 23:54 | 26.15099 | -80.35547 | 3043 ft | 196 kts | 269° |
| 2026-05-03 23:54 | 26.15067 | -80.37000 | 3005 ft | 179 kts | 268° |
| 2026-05-03 23:55 | 26.15026 | -80.38353 | 3006 ft | 175 kts | 268° |
| 2026-05-03 23:55 | 26.14987 | -80.39713 | 3007 ft | 176 kts | 268° |
| 2026-05-03 23:55 | 26.14951 | -80.41077 | 3004 ft | 176 kts | 268° |
| 2026-05-03 23:55 | 26.14916 | -80.42439 | 3007 ft | 177 kts | 268° |
| 2026-05-03 23:56 | 26.14849 | -80.43806 | 2999 ft | 177 kts | 262° |
| 2026-05-03 23:56 | 26.14264 | -80.45000 | 3005 ft | 180 kts | 223° |
| 2026-05-03 23:56 | 26.13124 | -80.45523 | 3007 ft | 182 kts | 185° |
| 2026-05-03 23:56 | 26.11922 | -80.45132 | 3006 ft | 184 kts | 146° |
| 2026-05-03 23:57 | 26.11123 | -80.44025 | 3006 ft | 185 kts | 118° |
| 2026-05-03 23:57 | 26.10585 | -80.42733 | 3016 ft | 185 kts | 113° |
| 2026-05-03 23:57 | 26.10088 | -80.41412 | 3014 ft | 185 kts | 113° |
| 2026-05-03 23:57 | 26.09601 | -80.40092 | 3018 ft | 185 kts | 112° |
| 2026-05-03 23:58 | 26.09116 | -80.38773 | 3021 ft | 184 kts | 113° |
| 2026-05-03 23:58 | 26.08632 | -80.37452 | 3019 ft | 185 kts | 112° |
| 2026-05-03 23:58 | 26.08153 | -80.36127 | 3018 ft | 185 kts | 112° |
| 2026-05-03 23:58 | 26.07884 | -80.34724 | 3029 ft | 186 kts | 95° |
| 2026-05-03 23:59 | 26.07839 | -80.33288 | 2903 ft | 185 kts | 90° |
| 2026-05-03 23:59 | 26.07822 | -80.31866 | 2693 ft | 183 kts | 91° |
| 2026-05-03 23:59 | 26.07790 | -80.30453 | 2443 ft | 182 kts | 91° |
| 2026-05-03 23:59 | 26.07762 | -80.29052 | 2197 ft | 180 kts | 90° |
| 2026-05-04 00:00 | 26.07762 | -80.27663 | 1966 ft | 179 kts | 89° |
| 2026-05-04 00:00 | 26.07752 | -80.26290 | 1719 ft | 175 kts | 90° |
| 2026-05-04 00:00 | 26.07741 | -80.24997 | 1496 ft | 160 kts | 89° |
| 2026-05-04 00:00 | 26.07676 | -80.23809 | 1302 ft | 147 kts | 102° |
| 2026-05-04 00:01 | 26.07351 | -80.22751 | 1163 ft | 146 kts | 110° |
| 2026-05-04 00:01 | 26.07014 | -80.21681 | 987 ft | 146 kts | 105° |
| 2026-05-04 00:01 | 26.06746 | -80.20585 | 775 ft | 145 kts | 102° |
| 2026-05-04 00:01 | 26.06619 | -80.19491 | 657 ft | 143 kts | 92° |
| 2026-05-04 00:02 | 26.06598 | -80.18383 | 512 ft | 144 kts | 88° |
| 2026-05-04 00:02 | 26.06583 | -80.17273 | 355 ft | 143 kts | 87° |
| 2026-05-04 00:02 | 26.06587 | -80.16161 | 143 ft | 143 kts | 88° |
| 2026-05-04 00:02 | 26.06586 | -80.15070 | 46 ft | 137 kts | 89° |
| 2026-05-04 00:03 | 26.06581 | -80.14245 | 53 ft | 67 kts | 90° |
| 2026-05-04 00:03 | 26.06580 | -80.14034 | 67 ft | 15 kts | 90° |
| 2026-05-04 00:03 | 26.06644 | -80.13773 | 64 ft | 36 kts | 52° |
| 2026-05-04 00:03 | 26.06679 | -80.13729 | 69 ft | 0 kts | 45° |
| 2026-05-04 00:05 | 26.06719 | -80.13715 | 67 ft | 7 kts | 356° |
| 2026-05-04 00:05 | 26.06737 | -80.13757 | 70 ft | 19 kts | 282° |
| 2026-05-04 00:06 | 26.06736 | -80.13979 | 65 ft | 31 kts | 256° |
| 2026-05-04 00:06 | 26.06689 | -80.14222 | 53 ft | 33 kts | 270° |
| 2026-05-04 00:06 | 26.06690 | -80.14483 | 51 ft | 34 kts | 270° |
| 2026-05-04 00:06 | 26.06691 | -80.14748 | 47 ft | 34 kts | 270° |
| 2026-05-04 00:07 | 26.06694 | -80.14990 | 45 ft | 27 kts | 271° |
| 2026-05-04 00:07 | 26.06714 | -80.15109 | 43 ft | 12 kts | 313° |
| 2026-05-04 00:07 | 26.06799 | -80.15130 | 41 ft | 13 kts | 359° |
| 2026-05-04 00:07 | 26.06898 | -80.15130 | 39 ft | 15 kts | 0° |
| 2026-05-04 00:08 | 26.07009 | -80.15127 | 35 ft | 17 kts | 7° |
| 2026-05-04 00:08 | 26.07112 | -80.15056 | 30 ft | 19 kts | 44° |
| 2026-05-04 00:08 | 26.07202 | -80.14954 | 27 ft | 17 kts | 50° |
| 2026-05-04 00:08 | 26.07249 | -80.14836 | 27 ft | 17 kts | 83° |
| 2026-05-04 00:09 | 26.07271 | -80.14720 | 28 ft | 6 kts | 53° |
| 2026-05-04 00:09 | 26.07272 | -80.14719 | 28 ft | 0 kts | 52° |